createdAt,value
2019-05-22T00:00:17.471Z,9.80
2019-05-22T00:02:47.829Z,9.80
2019-05-22T00:05:31.776Z,9.70
2019-05-22T00:08:02.584Z,9.70
2019-05-22T00:10:34.150Z,9.70
2019-05-22T00:13:04.659Z,9.60
2019-05-22T00:15:37.979Z,9.60
2019-05-22T00:18:07.758Z,9.50
2019-05-22T00:20:37.514Z,9.40
2019-05-22T00:23:14.766Z,9.40
2019-05-22T00:25:47.029Z,9.30
2019-05-22T00:28:15.983Z,9.30
2019-05-22T00:30:47.868Z,9.30
2019-05-22T00:33:17.401Z,9.30
2019-05-22T00:35:47.476Z,9.30
2019-05-22T00:38:17.871Z,9.30
2019-05-22T00:40:57.127Z,9.30
2019-05-22T00:43:30.190Z,9.30
2019-05-22T00:45:59.015Z,9.20
2019-05-22T00:48:30.877Z,9.20
2019-05-22T00:51:08.916Z,9.20
2019-05-22T00:53:45.967Z,9.20
2019-05-22T00:56:34.691Z,9.10
2019-05-22T00:59:07.730Z,9.10
2019-05-22T01:01:40.067Z,9.00
2019-05-22T01:04:11.942Z,9.00
2019-05-22T01:06:42.317Z,9.00
2019-05-22T01:09:20.909Z,8.90
2019-05-22T01:11:49.818Z,8.90
2019-05-22T01:14:20.293Z,8.90
2019-05-22T01:16:49.918Z,8.90
2019-05-22T01:19:19.463Z,8.80
2019-05-22T01:21:50.655Z,8.80
2019-05-22T01:24:19.683Z,8.70
2019-05-22T01:26:50.099Z,8.70
2019-05-22T01:29:20.113Z,8.70
2019-05-22T01:32:05.874Z,8.60
2019-05-22T01:34:37.308Z,8.60
2019-05-22T01:37:07.978Z,8.60
2019-05-22T01:39:46.942Z,8.60
2019-05-22T01:42:18.343Z,8.60
2019-05-22T01:45:00.454Z,8.50
2019-05-22T01:47:26.975Z,8.50
2019-05-22T01:49:56.416Z,8.50
2019-05-22T01:52:26.776Z,8.40
2019-05-22T01:54:58.434Z,8.40
2019-05-22T01:57:37.575Z,8.30
2019-05-22T02:00:09.627Z,8.30
2019-05-22T02:02:38.436Z,8.30
2019-05-22T02:05:10.158Z,8.30
2019-05-22T02:07:41.165Z,8.30
2019-05-22T02:10:14.555Z,8.30
2019-05-22T02:12:52.197Z,8.20
2019-05-22T02:15:21.303Z,8.10
2019-05-22T02:17:51.013Z,8.10
2019-05-22T02:20:20.459Z,8.00
2019-05-22T02:22:50.069Z,8.00
2019-05-22T02:25:21.354Z,8.00
2019-05-22T02:27:51.021Z,8.00
2019-05-22T02:30:23.306Z,8.10
2019-05-22T02:32:53.129Z,8.10
2019-05-22T02:35:22.674Z,8.00
2019-05-22T02:37:53.197Z,8.00
2019-05-22T02:40:26.026Z,8.00
2019-05-22T02:42:55.779Z,8.00
2019-05-22T02:45:26.477Z,8.00
2019-05-22T02:47:57.187Z,7.90
2019-05-22T02:50:27.823Z,8.00
2019-05-22T02:52:57.329Z,8.00
2019-05-22T02:55:27.352Z,8.00
2019-05-22T02:57:56.599Z,7.90
2019-05-22T03:00:29.916Z,7.90
2019-05-22T03:02:59.840Z,7.90
2019-05-22T03:05:29.452Z,7.90
2019-05-22T03:07:59.386Z,7.90
2019-05-22T03:10:31.094Z,7.90
2019-05-22T03:13:01.716Z,7.90
2019-05-22T03:15:30.800Z,7.90
2019-05-22T03:18:02.621Z,7.90
2019-05-22T03:20:33.377Z,7.90
2019-05-22T03:23:35.396Z,7.90
2019-05-22T03:26:05.763Z,7.90
2019-05-22T03:28:35.107Z,7.90
2019-05-22T03:31:05.270Z,7.90
2019-05-22T03:33:34.675Z,7.90
2019-05-22T03:36:09.888Z,7.90
2019-05-22T03:38:41.221Z,7.90
2019-05-22T03:41:12.591Z,7.90
2019-05-22T03:43:45.136Z,7.80
2019-05-22T03:46:23.812Z,7.90
2019-05-22T03:48:53.423Z,7.90
2019-05-22T03:51:22.957Z,7.90
2019-05-22T03:53:52.195Z,7.90
2019-05-22T03:56:22.382Z,7.90
2019-05-22T03:58:52.124Z,7.90
2019-05-22T04:01:22.657Z,7.90
2019-05-22T04:03:51.760Z,8.00
2019-05-22T04:06:22.732Z,8.00
2019-05-22T04:08:54.179Z,8.00
2019-05-22T04:11:26.579Z,8.00
2019-05-22T04:13:55.691Z,8.10
2019-05-22T04:16:26.116Z,8.10
2019-05-22T04:18:57.940Z,8.10
2019-05-22T04:21:27.097Z,8.20
2019-05-22T04:23:56.704Z,8.20
2019-05-22T04:26:26.635Z,8.30
2019-05-22T04:28:55.804Z,8.30
2019-05-22T04:31:42.301Z,8.20
2019-05-22T04:34:10.562Z,8.30
2019-05-22T04:36:40.210Z,8.20
2019-05-22T04:39:12.469Z,8.20
2019-05-22T04:41:41.905Z,8.10
2019-05-22T04:44:11.534Z,8.90
2019-05-22T04:46:41.656Z,10.90
2019-05-22T04:49:11.177Z,12.00
2019-05-22T04:51:41.103Z,12.50
2019-05-22T04:54:09.931Z,11.70
2019-05-22T04:56:39.164Z,10.90
2019-05-22T04:59:09.087Z,10.30
2019-05-22T05:01:38.725Z,9.80
2019-05-22T05:04:08.010Z,9.40
2019-05-22T05:06:37.790Z,9.40
2019-05-22T05:09:08.457Z,9.30
2019-05-22T05:11:38.374Z,9.30
2019-05-22T05:14:07.261Z,9.30
2019-05-22T05:16:36.078Z,9.10
2019-05-22T05:19:04.889Z,9.20
2019-05-22T05:21:33.810Z,9.20
2019-05-22T05:24:02.962Z,9.20
2019-05-22T05:26:33.365Z,9.30
2019-05-22T05:29:03.178Z,9.40
2019-05-22T05:31:32.446Z,9.40
2019-05-22T05:34:16.354Z,9.30
2019-05-22T05:36:46.915Z,9.30
2019-05-22T05:39:33.684Z,9.20
2019-05-22T05:42:02.707Z,9.20
2019-05-22T05:44:31.929Z,9.30
2019-05-22T05:47:01.802Z,9.30
2019-05-22T05:49:31.211Z,9.30
2019-05-22T05:52:00.514Z,9.30
2019-05-22T05:54:30.416Z,9.50
2019-05-22T05:57:19.032Z,9.60
2019-05-22T05:59:49.338Z,9.70
2019-05-22T06:02:19.213Z,9.80
2019-05-22T06:04:48.047Z,9.80
2019-05-22T06:07:21.070Z,9.70
2019-05-22T06:09:52.831Z,9.80
2019-05-22T06:12:22.828Z,9.90
2019-05-22T06:14:52.823Z,9.90
2019-05-22T06:17:28.921Z,9.90
2019-05-22T06:20:13.610Z,9.70
2019-05-22T06:22:43.983Z,9.90
2019-05-22T06:25:14.329Z,9.80
2019-05-22T06:27:49.224Z,9.80
2019-05-22T06:30:21.697Z,10.00
2019-05-22T06:33:12.482Z,9.80
2019-05-22T06:35:42.592Z,10.00
2019-05-22T06:38:26.388Z,10.00
2019-05-22T06:40:55.603Z,10.20
2019-05-22T06:43:28.970Z,10.30
2019-05-22T06:45:58.525Z,10.50
2019-05-22T06:48:27.701Z,10.30
2019-05-22T06:50:57.927Z,10.40
2019-05-22T06:53:26.814Z,10.50
2019-05-22T06:55:55.764Z,10.60
2019-05-22T06:58:24.569Z,10.60
2019-05-22T07:00:53.694Z,10.70
2019-05-22T07:03:23.116Z,10.60
2019-05-22T07:05:53.421Z,10.70
2019-05-22T07:08:22.746Z,10.70
2019-05-22T07:10:51.574Z,10.70
2019-05-22T07:13:22.123Z,10.80
2019-05-22T07:15:52.267Z,10.90
2019-05-22T07:18:22.698Z,10.70
2019-05-22T07:20:52.594Z,10.90
2019-05-22T07:23:24.544Z,10.90
2019-05-22T07:25:53.726Z,10.70
2019-05-22T07:28:24.218Z,10.70
2019-05-22T07:30:53.758Z,11.00
2019-05-22T07:33:23.922Z,11.10
2019-05-22T07:36:08.685Z,11.30
2019-05-22T07:38:23.702Z,11.50
2019-05-22T07:40:53.114Z,11.50
2019-05-22T07:43:22.560Z,11.30
2019-05-22T07:45:53.459Z,11.40
2019-05-22T07:48:24.276Z,11.50
2019-05-22T07:50:55.408Z,11.20
2019-05-22T07:53:26.515Z,11.20
2019-05-22T07:55:57.833Z,10.90
2019-05-22T07:58:29.827Z,11.20
2019-05-22T08:01:01.722Z,11.00
2019-05-22T08:03:32.756Z,10.80
2019-05-22T08:06:01.742Z,10.70
2019-05-22T08:08:33.372Z,10.30
2019-05-22T08:11:02.297Z,10.10
2019-05-22T08:13:32.338Z,10.00
2019-05-22T08:16:01.916Z,9.80
2019-05-22T08:18:33.254Z,9.70
2019-05-22T08:21:02.380Z,9.80
2019-05-22T08:23:31.674Z,9.70
2019-05-22T08:26:00.970Z,9.50
2019-05-22T08:28:31.987Z,9.30
2019-05-22T08:31:02.044Z,9.30
2019-05-22T08:33:33.821Z,9.20
2019-05-22T08:36:03.328Z,9.20
2019-05-22T08:38:33.966Z,9.30
2019-05-22T08:41:05.375Z,9.40
2019-05-22T08:43:55.928Z,9.60
2019-05-22T08:46:07.177Z,9.80
2019-05-22T08:48:38.182Z,10.00
2019-05-22T08:51:08.879Z,10.10
2019-05-22T08:53:47.397Z,10.20
2019-05-22T08:56:09.881Z,10.20
2019-05-22T08:58:39.902Z,10.20
2019-05-22T09:01:10.330Z,10.20
2019-05-22T09:03:39.444Z,10.40
2019-05-22T09:06:08.394Z,10.40
2019-05-22T09:08:37.406Z,10.50
2019-05-22T09:11:06.215Z,10.70
2019-05-22T09:13:35.021Z,10.80
2019-05-22T09:16:05.497Z,10.80
2019-05-22T09:18:34.327Z,11.00
2019-05-22T09:21:03.369Z,11.10
2019-05-22T09:23:33.107Z,11.30
2019-05-22T09:26:03.448Z,11.40
2019-05-22T09:28:32.280Z,11.50
2019-05-22T09:31:01.327Z,11.60
2019-05-22T09:33:30.421Z,11.40
2019-05-22T09:35:59.679Z,11.30
2019-05-22T09:38:29.390Z,11.10
2019-05-22T09:40:58.392Z,11.00
2019-05-22T09:43:27.515Z,11.10
2019-05-22T09:45:56.360Z,11.30
2019-05-22T09:48:25.471Z,11.40
2019-05-22T09:50:54.461Z,11.10
2019-05-22T09:53:23.308Z,10.60
2019-05-22T09:55:52.535Z,10.20
2019-05-22T09:58:21.354Z,10.10
2019-05-22T10:00:50.238Z,9.90
2019-05-22T10:03:19.226Z,10.00
2019-05-22T10:05:48.755Z,10.10
2019-05-22T10:08:17.908Z,10.30
2019-05-22T10:10:47.310Z,10.20
2019-05-22T10:13:16.137Z,10.30
2019-05-22T10:15:45.262Z,10.30
2019-05-22T10:18:14.152Z,10.40
2019-05-22T10:20:43.896Z,10.40
2019-05-22T10:23:16.006Z,10.20
2019-05-22T10:25:43.705Z,10.10
2019-05-22T10:28:13.558Z,9.90
2019-05-22T10:30:42.431Z,10.20
2019-05-22T10:33:11.410Z,10.30
2019-05-22T10:35:40.281Z,10.40
2019-05-22T10:38:09.686Z,10.70
2019-05-22T10:40:38.649Z,10.70
2019-05-22T10:43:08.013Z,10.50
2019-05-22T10:45:37.947Z,10.40
2019-05-22T10:48:06.951Z,10.50
2019-05-22T10:50:35.961Z,10.40
2019-05-22T10:53:05.109Z,10.20
2019-05-22T10:55:35.223Z,10.10
2019-05-22T10:58:04.139Z,10.10
2019-05-22T11:00:33.202Z,10.20
2019-05-22T11:03:02.240Z,10.10
2019-05-22T11:05:31.592Z,10.20
2019-05-22T11:08:00.542Z,10.10
2019-05-22T11:10:29.856Z,10.20
2019-05-22T11:12:59.464Z,10.30
2019-05-22T11:15:28.734Z,10.30
2019-05-22T11:17:58.351Z,10.30
2019-05-22T11:20:28.166Z,10.30
2019-05-22T11:22:57.657Z,10.30
2019-05-22T11:25:26.765Z,10.30
2019-05-22T11:27:55.573Z,10.50
2019-05-22T11:30:25.743Z,10.50
2019-05-22T11:32:54.803Z,10.60
2019-05-22T11:35:24.650Z,10.70
2019-05-22T11:37:53.480Z,10.70
2019-05-22T11:40:23.050Z,11.00
2019-05-22T11:42:53.598Z,11.10
2019-05-22T11:45:23.723Z,11.00
2019-05-22T11:47:53.684Z,11.20
2019-05-22T11:50:23.694Z,11.20
2019-05-22T11:52:52.861Z,11.50
2019-05-22T11:55:22.271Z,11.60
2019-05-22T11:57:51.816Z,11.70
2019-05-22T12:00:23.261Z,11.70
2019-05-22T12:02:52.632Z,11.80
2019-05-22T12:05:22.959Z,12.00
2019-05-22T12:07:52.814Z,11.80
2019-05-22T12:10:23.921Z,11.90
2019-05-22T12:12:54.430Z,12.10
2019-05-22T12:15:27.368Z,12.10
2019-05-22T12:17:57.151Z,12.00
2019-05-22T12:20:27.863Z,12.10
2019-05-22T12:22:57.322Z,12.10
2019-05-22T12:25:27.921Z,12.30
2019-05-22T12:27:57.037Z,12.20
2019-05-22T12:30:27.246Z,12.30
2019-05-22T12:32:56.439Z,12.50
2019-05-22T12:35:26.521Z,12.70
2019-05-22T12:37:56.270Z,12.90
2019-05-22T12:40:25.071Z,13.00
2019-05-22T12:42:54.179Z,13.20
2019-05-22T12:45:28.986Z,13.30
2019-05-22T12:47:59.288Z,13.30
2019-05-22T12:50:30.079Z,13.10
2019-05-22T12:53:01.279Z,13.10
2019-05-22T12:55:30.636Z,13.20
2019-05-22T12:58:00.652Z,13.40
2019-05-22T13:00:30.628Z,13.50
2019-05-22T13:03:00.831Z,13.40
2019-05-22T13:05:30.008Z,13.50
2019-05-22T13:07:58.849Z,13.90
2019-05-22T13:10:28.880Z,14.00
2019-05-22T13:12:58.798Z,14.00
2019-05-22T13:15:27.621Z,13.80
2019-05-22T13:17:58.065Z,13.60
2019-05-22T13:20:42.761Z,13.60
2019-05-22T13:23:04.712Z,13.00
2019-05-22T13:25:36.476Z,13.20
2019-05-22T13:28:07.132Z,13.50
2019-05-22T13:30:39.231Z,13.50
2019-05-22T13:33:11.510Z,13.40
2019-05-22T13:35:41.969Z,13.50
2019-05-22T13:38:11.856Z,13.50
2019-05-22T13:40:41.022Z,13.60
2019-05-22T13:43:10.413Z,14.00
2019-05-22T13:45:39.839Z,14.40
2019-05-22T13:48:09.281Z,14.60
2019-05-22T13:50:38.524Z,14.70
2019-05-22T13:53:08.741Z,15.00
2019-05-22T13:55:37.766Z,15.10
2019-05-22T13:58:08.083Z,14.70
2019-05-22T14:00:37.858Z,14.70
2019-05-22T14:03:06.737Z,14.30
2019-05-22T14:05:36.474Z,14.40
2019-05-22T14:08:06.421Z,14.50
2019-05-22T14:10:35.455Z,14.60
2019-05-22T14:13:04.968Z,14.50
2019-05-22T14:15:50.083Z,14.80
2019-05-22T14:18:04.292Z,14.80
2019-05-22T14:20:33.126Z,15.00
2019-05-22T14:23:01.938Z,14.60
2019-05-22T14:25:30.766Z,14.10
2019-05-22T14:27:59.829Z,13.90
2019-05-22T14:30:29.560Z,13.80
2019-05-22T14:33:03.842Z,13.80
2019-05-22T14:35:46.940Z,13.80
2019-05-22T14:38:04.347Z,13.60
2019-05-22T14:40:33.544Z,13.50
2019-05-22T14:43:02.676Z,13.60
2019-05-22T14:45:31.521Z,13.60
2019-05-22T14:48:02.086Z,13.60
2019-05-22T14:50:33.139Z,13.70
2019-05-22T14:53:06.063Z,13.60
2019-05-22T14:55:37.497Z,13.80
2019-05-22T14:58:07.046Z,13.70
2019-05-22T15:00:36.842Z,14.00
2019-05-22T15:03:06.789Z,14.20
2019-05-22T15:05:35.723Z,14.30
2019-05-22T15:08:06.355Z,14.40
2019-05-22T15:10:36.935Z,14.40
2019-05-22T15:13:06.320Z,14.40
2019-05-22T15:15:40.168Z,14.50
2019-05-22T15:18:06.881Z,14.70
2019-05-22T15:20:37.866Z,14.70
2019-05-22T15:23:09.157Z,15.00
2019-05-22T15:25:38.852Z,14.90
2019-05-22T15:28:09.437Z,14.60
2019-05-22T15:30:39.342Z,14.50
2019-05-22T15:33:09.207Z,14.80
2019-05-22T15:35:38.182Z,15.00
2019-05-22T15:38:10.614Z,15.00
2019-05-22T15:40:39.806Z,14.60
2019-05-22T15:43:10.637Z,14.80
2019-05-22T15:45:40.387Z,14.60
2019-05-22T15:48:12.735Z,14.50
2019-05-22T15:50:45.342Z,14.30
2019-05-22T15:53:15.492Z,14.30
2019-05-22T15:55:48.676Z,14.30
2019-05-22T15:58:19.040Z,14.10
2019-05-22T16:00:48.340Z,14.20
2019-05-22T16:03:25.098Z,14.20
2019-05-22T16:05:55.838Z,14.30
2019-05-22T16:08:24.680Z,14.30
2019-05-22T16:10:59.496Z,14.00
2019-05-22T16:13:27.032Z,14.00
2019-05-22T16:16:00.559Z,14.10
2019-05-22T16:18:32.425Z,14.00
2019-05-22T16:21:02.651Z,14.20
2019-05-22T16:23:33.442Z,14.10
2019-05-22T16:26:05.117Z,14.20
2019-05-22T16:28:36.587Z,14.30
2019-05-22T16:31:10.006Z,14.20
2019-05-22T16:33:41.079Z,14.30
2019-05-22T16:36:10.494Z,14.20
2019-05-22T16:38:40.178Z,14.10
2019-05-22T16:41:10.902Z,14.10
2019-05-22T16:43:48.697Z,14.30
2019-05-22T16:46:14.185Z,14.30
2019-05-22T16:48:43.919Z,14.40
2019-05-22T16:51:15.601Z,14.30
2019-05-22T16:53:50.229Z,14.40
2019-05-22T16:56:20.655Z,14.70
2019-05-22T16:58:50.242Z,14.60
2019-05-22T17:01:20.852Z,14.40
2019-05-22T17:03:55.339Z,14.40
2019-05-22T17:06:25.466Z,14.40
2019-05-22T17:08:57.303Z,14.50
2019-05-22T17:11:27.802Z,14.50
2019-05-22T17:14:01.274Z,14.40
2019-05-22T17:16:32.466Z,14.50
2019-05-22T17:19:01.440Z,14.50
2019-05-22T17:21:30.582Z,14.30
2019-05-22T17:24:00.270Z,14.40
2019-05-22T17:26:30.086Z,14.30
2019-05-22T17:28:59.568Z,14.20
2019-05-22T17:31:29.324Z,14.00
2019-05-22T17:33:59.368Z,14.10
2019-05-22T17:36:29.227Z,13.70
2019-05-22T17:38:58.737Z,13.50
2019-05-22T17:41:29.575Z,13.50
2019-05-22T17:44:00.305Z,13.30
2019-05-22T17:46:31.532Z,13.30
2019-05-22T17:49:01.382Z,13.30
2019-05-22T17:51:31.218Z,13.30
2019-05-22T17:54:00.513Z,13.40
2019-05-22T17:56:31.016Z,13.60
2019-05-22T17:59:01.476Z,13.50
2019-05-22T18:01:31.160Z,13.40
2019-05-22T18:04:00.035Z,13.30
2019-05-22T18:06:29.236Z,13.30
2019-05-22T18:08:58.358Z,13.10
2019-05-22T18:11:27.360Z,13.10
2019-05-22T18:14:00.928Z,13.20
2019-05-22T18:16:31.280Z,13.00
2019-05-22T18:19:04.970Z,12.90
2019-05-22T18:21:34.517Z,12.90
2019-05-22T18:24:05.379Z,12.90
2019-05-22T18:26:34.666Z,12.90
2019-05-22T18:29:03.597Z,12.70
2019-05-22T18:31:32.499Z,12.70
2019-05-22T18:34:01.673Z,12.80
2019-05-22T18:36:30.465Z,12.70
2019-05-22T18:38:59.282Z,12.60
2019-05-22T18:41:28.447Z,12.50
2019-05-22T18:43:58.122Z,12.50
2019-05-22T18:46:27.186Z,12.50
2019-05-22T18:48:56.222Z,12.60
2019-05-22T18:51:25.435Z,12.60
2019-05-22T18:53:54.858Z,12.70
2019-05-22T18:56:23.807Z,12.60
2019-05-22T18:58:53.869Z,12.60
2019-05-22T19:01:22.751Z,12.60
2019-05-22T19:03:51.788Z,12.50
2019-05-22T19:06:30.367Z,12.60
2019-05-22T19:08:51.552Z,12.60
2019-05-22T19:11:22.420Z,12.60
2019-05-22T19:13:51.257Z,12.60
2019-05-22T19:16:20.645Z,12.60
2019-05-22T19:18:49.442Z,12.60
2019-05-22T19:21:18.296Z,12.70
2019-05-22T19:23:47.202Z,12.60
2019-05-22T19:26:16.563Z,12.60
2019-05-22T19:28:45.404Z,12.60
2019-05-22T19:31:14.414Z,12.60
2019-05-22T19:33:43.232Z,12.60
2019-05-22T19:36:12.098Z,12.60
2019-05-22T19:38:41.454Z,12.40
2019-05-22T19:41:10.585Z,12.40
2019-05-22T19:43:39.829Z,12.30
2019-05-22T19:46:09.661Z,12.30
2019-05-22T19:48:39.501Z,12.20
2019-05-22T19:51:08.760Z,12.20
2019-05-22T19:53:37.667Z,12.10
2019-05-22T19:56:06.941Z,12.10
2019-05-22T19:58:36.591Z,12.10
2019-05-22T20:01:06.754Z,12.00
2019-05-22T20:03:36.494Z,12.00
2019-05-22T20:06:06.546Z,12.00
2019-05-22T20:08:36.956Z,11.90
2019-05-22T20:11:06.242Z,11.80
2019-05-22T20:13:35.486Z,11.60
2019-05-22T20:16:04.840Z,11.60
2019-05-22T20:18:34.092Z,11.60
2019-05-22T20:21:03.324Z,11.60
2019-05-22T20:23:35.729Z,11.60
2019-05-22T20:26:03.378Z,11.70
2019-05-22T20:28:32.168Z,11.70
2019-05-22T20:31:01.002Z,11.70
2019-05-22T20:33:29.823Z,11.70
2019-05-22T20:35:58.627Z,11.70
2019-05-22T20:38:27.690Z,11.70
2019-05-22T20:40:57.365Z,11.70
2019-05-22T20:43:26.350Z,11.70
2019-05-22T20:45:55.670Z,11.60
2019-05-22T20:48:32.528Z,11.60
2019-05-22T20:51:02.024Z,11.50
2019-05-22T20:53:32.997Z,11.60
2019-05-22T20:56:02.144Z,11.60
2019-05-22T20:58:32.652Z,11.50
2019-05-22T21:01:01.452Z,11.60
2019-05-22T21:03:34.464Z,11.60
2019-05-22T21:06:08.284Z,11.60
2019-05-22T21:08:38.310Z,11.60
2019-05-22T21:11:08.788Z,11.50
2019-05-22T21:13:38.188Z,11.50
2019-05-22T21:16:08.032Z,11.50
2019-05-22T21:18:39.441Z,11.50
2019-05-22T21:21:09.260Z,11.60
2019-05-22T21:23:38.767Z,11.60
2019-05-22T21:26:08.682Z,11.60
2019-05-22T21:28:38.639Z,11.60
2019-05-22T21:31:08.252Z,11.60
2019-05-22T21:33:37.987Z,11.50
2019-05-22T21:36:09.872Z,11.50
2019-05-22T21:38:38.798Z,11.50
2019-05-22T21:41:07.566Z,11.50
2019-05-22T21:43:38.697Z,11.40
2019-05-22T21:46:07.508Z,11.40
2019-05-22T21:48:36.516Z,11.40
2019-05-22T21:51:07.805Z,11.40
2019-05-22T21:53:37.315Z,11.40
2019-05-22T21:56:06.504Z,11.40
2019-05-22T21:58:35.447Z,11.40
2019-05-22T22:01:12.715Z,11.40
2019-05-22T22:03:49.989Z,11.40
2019-05-22T22:06:19.408Z,11.40
2019-05-22T22:08:48.531Z,11.30
2019-05-22T22:11:19.105Z,11.30
2019-05-22T22:13:49.287Z,11.30
2019-05-22T22:16:18.124Z,11.30
2019-05-22T22:18:47.637Z,11.30
2019-05-22T22:21:16.673Z,11.30
2019-05-22T22:23:46.579Z,11.20
2019-05-22T22:26:25.570Z,11.20
2019-05-22T22:28:46.929Z,11.20
2019-05-22T22:31:18.305Z,11.20
2019-05-22T22:33:50.076Z,11.30
2019-05-22T22:36:20.047Z,11.20
2019-05-22T22:38:48.943Z,11.20
2019-05-22T22:41:18.960Z,11.20
2019-05-22T22:43:48.973Z,11.20
2019-05-22T22:46:43.326Z,11.20
2019-05-22T22:49:16.100Z,11.10
2019-05-22T22:51:46.902Z,11.20
2019-05-22T22:54:15.766Z,11.20
2019-05-22T22:56:45.607Z,11.20
2019-05-22T22:59:15.332Z,11.20
2019-05-22T23:01:47.146Z,11.20
2019-05-22T23:04:16.656Z,11.20
2019-05-22T23:06:45.658Z,11.10
2019-05-22T23:09:15.408Z,11.20
2019-05-22T23:11:45.836Z,11.20
2019-05-22T23:14:15.700Z,11.20
2019-05-22T23:16:44.725Z,11.20
2019-05-22T23:19:18.191Z,11.20
2019-05-22T23:21:48.904Z,11.20
2019-05-22T23:24:19.925Z,11.20
2019-05-22T23:26:49.194Z,11.20
2019-05-22T23:29:19.697Z,11.20
2019-05-22T23:31:48.514Z,11.20
2019-05-22T23:34:17.736Z,11.20
2019-05-22T23:36:47.163Z,11.30
2019-05-22T23:39:17.836Z,11.30
2019-05-22T23:41:47.465Z,11.30
2019-05-22T23:44:19.626Z,11.20
2019-05-22T23:46:48.755Z,11.30
2019-05-22T23:49:17.815Z,11.20
2019-05-22T23:51:48.519Z,11.20
2019-05-22T23:54:17.345Z,11.20
2019-05-22T23:56:46.994Z,11.20
2019-05-22T23:59:16.811Z,11.20
